TimeCDT,TemperatureF,Dew PointF,Humidity,Sea Level PressureIn,VisibilityMPH,Wind Direction,Wind SpeedMPH,Gust SpeedMPH,PrecipitationIn,Events,Conditions,WindDirDegrees,DateUTC
12:00 AM,-14.8,-22.0,70,29.92,0.5,North,16.1,-,N/A,Snow,Ice Crystals,360,2013-10-28 05:00:00
12:20 AM,-9999,-9999,N/A,-9999,1.0,North,18.4,-,N/A,,Ice Crystals,360,2013-10-28 05:20:00
1:00 AM,-14,-23,48,29.95,1,North,15.0,,,Snow,Snow,10,2013-10-28 06:00:00
1:00 AM,-14.8,-22.0,70,29.95,1.0,North,15.0,-,N/A,Snow,Ice Crystals,10,2013-10-28 06:00:00
1:37 AM,-9999,-9999,N/A,-9999,2.5,North,15.0,-,N/A,,Ice Crystals,10,2013-10-28 06:37:00
2:00 AM,-14.8,-23.8,64,29.97,2.5,North,15.0,-,N/A,Snow,Ice Crystals,10,2013-10-28 07:00:00
2:48 AM,-9999,-9999,N/A,-9999,10.0,NNW,12.7,-,N/A,,Unknown,330,2013-10-28 07:48:00
3:00 AM,-14.8,-23.8,64,29.97,10.0,NNW,13.8,-,N/A,Snow,Low Drifting Snow,340,2013-10-28 08:00:00
4:00 AM,-14.8,-23.8,64,29.97,8.0,NNW,17.3,-,N/A,Snow,Low Drifting Snow,330,2013-10-28 09:00:00
5:00 AM,-16.6,-25.6,64,29.98,15.0,NW,8.1,-,N/A,Snow,Low Drifting Snow,320,2013-10-28 10:00:00
6:00 AM,-16.6,-25.6,64,29.99,15.0,NW,8.1,-,N/A,,Clear,320,2013-10-28 11:00:00
7:00 AM,-17,-26,47,29.99,15,WNW,4.6,,,Snow,Snow,290,2013-10-28 12:00:00
7:00 AM,-16.6,-25.6,64,29.99,15.0,WNW,4.6,-,N/A,,Clear,290,2013-10-28 12:00:00
8:00 AM,-16.6,-25.6,64,29.99,12.0,NNW,11.5,-,N/A,,Partly Cloudy,330,2013-10-28 13:00:00
9:00 AM,-13.0,-22.0,64,29.98,10.0,North,8.1,-,N/A,,Partly Cloudy,10,2013-10-28 14:00:00
10:00 AM,-16.6,-25.6,64,29.99,15.0,WNW,5.8,-,N/A,,Partly Cloudy,290,2013-10-28 15:00:00
11:00 AM,-16.6,-25.6,64,29.99,15.0,WNW,5.8,-,N/A,,Partly Cloudy,290,2013-10-28 16:00:00
12:00 PM,-14.8,-23.8,64,29.98,15.0,NW,3.5,-,N/A,,Partly Cloudy,310,2013-10-28 17:00:00
1:00 PM,-14.8,-23.8,64,29.99,15.0,NW,3.5,-,N/A,,Partly Cloudy,320,2013-10-28 18:00:00
2:00 PM,-14.8,-23.8,64,29.98,15.0,WNW,4.6,-,N/A,,Partly Cloudy,290,2013-10-28 19:00:00
3:00 PM,-13.0,-22.0,64,29.97,15.0,NW,8.1,-,N/A,,Partly Cloudy,320,2013-10-28 20:00:00
4:00 PM,-13.0,-20.2,70,29.97,15.0,NNW,8.1,-,N/A,,Partly Cloudy,340,2013-10-28 21:00:00
5:00 PM,-13.0,-20.2,70,29.98,15.0,WNW,3.5,-,N/A,,Partly Cloudy,290,2013-10-28 22:00:00
6:00 PM,-13.0,-22.0,64,29.99,15.0,WNW,5.8,-,N/A,,Partly Cloudy,290,2013-10-28 23:00:00
7:00 PM,-14.8,-23.8,64,29.98,15.0,WNW,9.2,-,N/A,,Partly Cloudy,300,2013-10-29 00:00:00
8:00 PM,-14.8,-22.0,70,29.98,15.0,NW,6.9,-,N/A,,Clear,310,2013-10-29 01:00:00
9:00 PM,-16.6,-25.6,64,29.96,15.0,WNW,4.6,-,N/A,,Clear,300,2013-10-29 02:00:00
10:00 PM,-14.8,-22.0,70,29.96,15.0,North,6.9,-,N/A,,Clear,10,2013-10-29 03:00:00
11:00 PM,-13.0,-20.2,70,29.96,15.0,North,9.2,-,N/A,,Clear,10,2013-10-29 04:00:00